This is the latest recevied weather packets stored in our database for station/object DG8SF-13. If no packets are shown the sender has not sent any weather packets the latest 10 day(s).
| Time | Temp. | Humidity | Pressure | Rain* | Wind** | Luminosity | Snow |
|---|---|---|---|---|---|---|---|
| 1777791090 | 19.44° C | 49% | 1015.4 hPa | 0 mm | - | - | - |
| 1777790779 | 19.44° C | 46% | 1015.3 hPa | 0 mm | - | - | - |
| 1777790467 | 18.89° C | 48% | 1015.4 hPa | 0 mm | - | - | - |
| 1777790156 | 18.33° C | 50% | 1015.4 hPa | 0 mm | - | - | - |
| 1777789843 | 17.78° C | 51% | 1015.4 hPa | 0 mm | - | - | - |
| 1777789531 | 17.22° C | 52% | 1015.5 hPa | 0 mm | - | - | - |
| 1777789219 | 16.11° C | 58% | 1015.5 hPa | 0 mm | - | - | - |
| 1777788906 | 13.89° C | 63% | 1015.6 hPa | 0 mm | - | - | - |
| 1777788596 | 13.33° C | 63% | 1015.6 hPa | 0 mm | - | - | - |
| 1777788283 | 13.33° C | 62% | 1015.6 hPa | 0 mm | - | - | - |
| 1777787969 | 13.89° C | 60% | 1015.6 hPa | 0 mm | - | - | - |
| 1777787659 | 13.89° C | 61% | 1015.6 hPa | 0 mm | - | - | - |
| 1777787347 | 12.22° C | 66% | 1015.6 hPa | 0 mm | - | - | - |
| 1777787035 | 9.44° C | 77% | 1015.6 hPa | 0 mm | - | - | - |
| 1777786722 | 8.33° C | 80% | 1015.6 hPa | 0 mm | - | - | - |
| 1777786412 | 7.78° C | 82% | 1015.5 hPa | 0 mm | - | - | - |
| 1777786099 | 7.78° C | 82% | 1015.6 hPa | 0 mm | - | - | - |
| 1777785789 | 7.78° C | 82% | 1015.6 hPa | 0 mm | - | - | - |
| 1777785475 | 7.22° C | 81% | 1015.6 hPa | 0 mm | - | - | - |
| 1777785164 | 7.22° C | 82% | 1015.6 hPa | 0 mm | - | - | - |
| 1777784851 | 7.22° C | 84% | 1015.7 hPa | 0 mm | - | - | - |
| 1777784542 | 6.67° C | 84% | 1015.6 hPa | 0 mm | - | - | - |
| 1777784227 | 6.67° C | 84% | 1015.7 hPa | 0 mm | - | - | - |
| 1777783916 | 6.11° C | 86% | 1015.7 hPa | 0 mm | - | - | - |
| 1777783603 | 5.56° C | 86% | 1015.7 hPa | 0 mm | - | - | - |
* Rain latest hour (hover to see other rain measurements)
** Current wind speed in m/s (hover to see current wind gust speed)